Data for 07/31/2018

Time Sea-Level Adjusted Pressure Absolute Pressure Temperature Relative Humidity Dew Point   
(mb) (inHg) (mb) (inHg) (C) (F) (%) (C) (F)
00:05 1023 30.21 853 25.19 16.4 61.4 38 2.2 35.9
00:10 1023 30.21 853 25.19 16.4 61.5 37 1.9 35.5
00:15 1024 30.24 853 25.19 16.5 61.6 37 1.8 35.2
00:20 1024 30.24 853 25.19 16.6 62 36 1.7 35.1
00:25 1024 30.24 853 25.19 16.6 62 36 1.7 35.1
00:30 1024 30.24 853 25.19 16.6 61.8 36 1.7 35
00:35 1024 30.24 853 25.19 16.5 61.6 37 1.8 35.2
00:40 1024 30.24 853 25.19 16.3 61.4 38 1.9 35.5
00:45 1024 30.24 853 25.19 16.3 61.3 38 2 35.6
00:50 1024 30.24 853 25.19 16.3 61.4 38 2.2 35.9
00:55 1024 30.24 853 25.19 16.2 61.2 38 1.8 35.3
01:00 1024 30.24 853 25.19 16.4 61.5 37 1.7 35
01:05 1024 30.24 853 25.19 16.4 61.5 37 1.6 35
01:10 1024 30.24 853 25.19 16.3 61.3 35 1.1 33.9
01:15 1024 30.24 853 25.19 16.4 61.5 35 1 33.8
01:20 1024 30.24 853 25.19 16.6 61.9 34 0.7 33.3
01:25 1024 30.24 853 25.19 16.8 62.2 33 0.7 33.2
01:30 1024 30.24 853 25.19 16.9 62.4 33 0.6 33
01:35 1024 30.24 853 25.19 16.9 62.5 33 0.6 33.1
01:40 1024 30.24 853 25.19 16.9 62.5 33 0.8 33.5
01:45 1024 30.24 853 25.19 17.1 62.7 34 1.1 34
01:50 1024 30.24 853 25.19 17.2 62.9 33 0.7 33.3
01:55 1024 30.24 853 25.19 17.1 62.7 33 0.9 33.6
02:00 1024 30.24 853 25.19 17.1 62.7 32 0.4 32.7
02:05 1024 30.24 853 25.19 17.5 63.5 31 0.5 32.8
02:10 1024 30.24 853 25.19 17.9 64.2 33 1.4 34.5
02:15 1024 30.24 853 25.19 17.9 64.1 32 1.2 34.2
02:20 1024 30.24 853 25.19 17.8 64 33 1.4 34.5
02:25 1024 30.24 853 25.19 17.5 63.5 34 1.4 34.6
02:30 1024 30.24 853 25.19 17.2 62.9 34 1.1 34
02:35 1024 30.24 853 25.19 16.5 61.8 34 0.7 33.2
02:40 1024 30.24 853 25.19 16.4 61.5 34 0.8 33.4
02:45 1024 30.24 853 25.19 16.5 61.7 33 0.2 32.4
02:50 1024 30.24 853 25.19 16.5 61.7 36 1.7 35
02:55 1024 30.24 853 25.19 15.4 59.7 42 2.8 37
03:00 1024 30.24 853 25.19 14.6 58.4 42 2.1 35.7
03:05 1024 30.24 853 25.19 14.7 58.4 40 1.4 34.6
03:10 1024 30.24 853 25.19 15.3 59.5 37 0.8 33.4
03:15 1024 30.24 853 25.19 15.4 59.7 36 0.5 33
03:20 1024 30.24 853 25.19 15.8 60.4 34 0.2 32.4
03:25 1024 30.24 853 25.19 15.8 60.4 34 0.2 32.3
03:30 1024 30.24 853 25.19 15.9 60.7 36 0.9 33.5
03:35 1024 30.24 853 25.19 15.7 60.2 36 0.7 33.3
03:40 1024 30.24 853 25.19 15.6 60 37 0.9 33.6
03:45 1024 30.24 853 25.19 15.3 59.6 37 0.7 33.3
03:50 1024 30.24 853 25.19 15.1 59.1 39 1.3 34.3
03:55 1024 30.24 854 25.22 14.4 57.9 42 1.9 35.4
04:00 1024 30.24 854 25.22 14 57.2 42 1.5 34.7
04:05 1024 30.24 854 25.22 14 57.3 39 0.4 32.6
04:10 1024 30.24 854 25.22 14.6 58.3 39 0.8 33.4
04:15 1024 30.24 854 25.22 14.3 57.8 39 0.7 33.3
04:20 1024 30.24 854 25.22 14.4 57.9 38 0.5 32.9
04:25 1024 30.24 854 25.22 14.8 58.6 38 0.7 33.2
04:30 1024 30.24 853 25.19 14.8 58.7 38 0.8 33.4
04:35 1024 30.24 853 25.19 15 59 35 -0.1 31.9
04:40 1024 30.24 853 25.19 15.3 59.5 37 0.7 33.2
04:45 1024 30.24 853 25.19 15.3 59.6 36 0.3 32.5
04:50 1024 30.24 853 25.19 15.3 59.6 37 0.9 33.7
04:55 1024 30.24 853 25.19 14.9 58.8 38 0.7 33.2
05:00 1024 30.24 853 25.19 14.9 58.8 38 0.8 33.5
05:05 1024 30.24 853 25.19 14.8 58.7 39 0.9 33.6
05:10 1024 30.24 853 25.19 14.7 58.4 39 0.9 33.6
05:15 1024 30.24 853 25.19 14.5 58 42 1.6 34.9
05:20 1024 30.24 853 25.19 13.9 56.9 43 1.4 34.6
05:25 1024 30.24 853 25.19 14.2 57.5 40 0.7 33.3
05:30 1024 30.24 853 25.19 14.6 58.2 40 1.3 34.3
05:35 1024 30.24 853 25.19 14.3 57.7 42 1.6 34.9
05:40 1024 30.24 853 25.19 14.2 57.6 39 0.5 32.9
05:45 1024 30.24 853 25.19 14.6 58.2 39 0.8 33.5
05:50 1024 30.24 853 25.19 14.5 58.1 40 1 33.9
05:55 1024 30.24 853 25.19 14.4 57.9 40 1.2 34.2
06:00 1024 30.24 853 25.19 14.4 57.8 39 0.8 33.5
06:05 1024 30.24 853 25.19 14.6 58.3 38 0.5 33
06:10 1024 30.24 853 25.19 15.1 59.3 37 0.6 33.1
06:15 1024 30.24 853 25.19 15.2 59.3 37 0.5 33
06:20 1024 30.24 853 25.19 15.3 59.5 37 0.7 33.3
06:25 1024 30.24 854 25.22 14.9 58.8 38 0.8 33.4
06:30 1024 30.24 854 25.22 15.2 59.4 37 0.8 33.5
06:35 1024 30.24 854 25.22 15.4 59.8 37 0.9 33.5
06:40 1024 30.24 854 25.22 15.2 59.3 38 1.2 34.2
06:45 1024 30.24 854 25.22 14.9 58.7 43 2.4 36.3
06:50 1024 30.24 854 25.22 15.2 59.3 41 2.1 35.8
06:55 1025 30.27 854 25.22 14.6 58.4 42 2.1 35.8
07:00 1025 30.27 854 25.22 14.6 58.3 39 1.1 33.9
07:05 1025 30.27 854 25.22 15.1 59.1 38 0.9 33.7
07:10 1025 30.27 854 25.22 15.9 60.5 36 1 33.8
07:15 1025 30.27 854 25.22 16.5 61.7 38 2.2 35.9
07:20 1025 30.27 854 25.22 16.6 61.8 35 1.2 34.2
07:25 1025 30.27 854 25.22 16.8 62.3 35 1.5 34.6
07:30 1025 30.27 854 25.22 16.9 62.5 37 2.3 36.1
07:35 1025 30.27 854 25.22 17.1 62.7 37 2.5 36.5
07:40 1025 30.27 854 25.22 17.1 62.8 39 3.2 37.8
07:45 1025 30.27 854 25.22 16.8 62.3 38 2.4 36.3
07:50 1025 30.27 854 25.22 17.4 63.3 37 2.8 37.1
07:55 1025 30.27 854 25.22 17.9 64.2 39 4.1 39.3
08:00 1025 30.27 854 25.22 18.3 65 34 2.3 36.1
08:05 1025 30.27 854 25.22 18.7 65.6 33 2.3 36.1
08:10 1025 30.27 854 25.22 18.8 65.9 33 2.3 36.1
08:15 1025 30.27 854 25.22 18.6 65.6 34 2.4 36.4
08:20 1025 30.27 855 25.25 18.5 65.4 32 1.6 34.9
08:25 1025 30.27 855 25.25 19 66.2 31 1.6 34.9
08:30 1025 30.27 855 25.25 19 66.1 31 1.7 35.1
08:35 1026 30.3 855 25.25 18.5 65.3 32 1.8 35.3
08:40 1026 30.3 855 25.25 18.3 65 32 1.5 34.7
08:45 1026 30.3 855 25.25 19.1 66.3 33 2.4 36.3
08:50 1026 30.3 855 25.25 19.1 66.5 36 3.9 39
08:55 1026 30.3 855 25.25 18.2 64.8 40 4.7 40.5
09:00 1026 30.3 855 25.25 17.9 64.3 39 3.9 39
09:05 1026 30.3 855 25.25 18.6 65.4 35 3.1 37.5
09:10 1026 30.3 855 25.25 19.4 66.9 35 3.5 38.3
09:15 1026 30.3 855 25.25 19.9 67.8 34 3.6 38.4
09:20 1026 30.3 855 25.25 19.9 67.9 33 3.3 37.9
09:25 1026 30.3 855 25.25 20.2 68.3 32 3.3 37.9
09:30 1026 30.3 855 25.25 20.7 69.3 30 2.6 36.6
09:35 1026 30.3 855 25.25 21.2 70.2 30 3.2 37.7
09:40 1026 30.3 855 25.25 21.5 70.7 30 3.5 38.4
09:45 1026 30.3 855 25.25 21.7 71.1 29 2.9 37.3
09:50 1026 30.3 855 25.25 21.9 71.4 30 3.8 38.8
09:55 1026 30.3 855 25.25 21.3 70.4 31 3.7 38.6
10:00 1025 30.27 855 25.25 21.2 70.2 30 3.3 37.9
10:05 1025 30.27 855 25.25 22.7 72.8 28 3.6 38.6
10:10 1025 30.27 855 25.25 22.6 72.7 29 4 39.2
10:15 1025 30.27 855 25.25 22.6 72.6 29 3.9 39
10:20 1025 30.27 855 25.25 22.1 71.8 30 3.9 39.1
10:25 1025 30.27 855 25.25 21.9 71.4 30 3.9 39.1
10:30 1025 30.27 855 25.25 22 71.5 31 4 39.3
10:35 1025 30.27 855 25.25 22 71.7 32 4.8 40.7
10:40 1025 30.27 855 25.25 22 71.5 33 5 41
10:45 1025 30.27 855 25.25 21.9 71.4 31 4.4 39.9
10:50 1025 30.27 855 25.25 22.4 72.3 31 4.5 40.1
10:55 1025 30.27 855 25.25 22.5 72.4 31 4.5 40.1
11:00 1025 30.27 855 25.25 22.5 72.6 31 4.6 40.2
11:05 1025 30.27 855 25.25 23.4 74.1 28 4.2 39.5
11:10 1025 30.27 855 25.25 23.5 74.4 29 4.6 40.4
11:15 1025 30.27 854 25.22 23.3 74 28 3.8 38.9
11:20 1025 30.27 854 25.22 23.3 73.9 28 4.2 39.5
11:25 1025 30.27 854 25.22 22.9 73.3 29 4.3 39.7
11:30 1025 30.27 854 25.22 23.3 73.9 29 4.2 39.6
11:35 1025 30.27 854 25.22 22.7 72.9 29 3.9 39
11:40 1025 30.27 854 25.22 23.4 74.1 28 4.1 39.3
11:45 1025 30.27 854 25.22 23.7 74.7 28 4.3 39.8
11:50 1025 30.27 854 25.22 24 75.2 27 4.2 39.5
11:55 1025 30.27 854 25.22 23.6 74.5 29 4.8 40.7
12:00 1025 30.27 854 25.22 23.7 74.7 27 3.8 38.9
12:05 1025 30.27 854 25.22 24.3 75.7 25 3.5 38.3
12:10 1025 30.27 854 25.22 24.5 76 26 3.8 38.9
12:15 1025 30.27 854 25.22 24.7 76.5 26 4.2 39.6
12:20 1025 30.27 854 25.22 24.8 76.7 27 4.6 40.3
12:25 1025 30.27 854 25.22 24.8 76.6 27 5 41
12:30 1025 30.27 854 25.22 24.3 75.8 26 4.1 39.4
12:35 1025 30.27 854 25.22 24.9 76.8 28 5.3 41.5
12:40 1025 30.27 854 25.22 25.4 77.8 26 4.8 40.7
12:45 1025 30.27 854 25.22 24.3 75.7 29 5.2 41.4
12:50 1025 30.27 854 25.22 25.1 77.3 28 5.8 42.4
12:55 1025 30.27 854 25.22 25.6 78.1 28 5.8 42.5
13:00 1025 30.27 854 25.22 25.7 78.2 27 5.6 42.1
13:05 1025 30.27 854 25.22 25.7 78.2 27 5.8 42.4
13:10 1025 30.27 854 25.22 26.4 79.5 24 4.6 40.3
13:15 1024 30.24 854 25.22 25.9 78.7 27 5.6 42.1
13:20 1024 30.24 854 25.22 26 78.7 25 4.9 40.8
13:25 1024 30.24 854 25.22 25.6 78 27 5.6 42
13:30 1024 30.24 854 25.22 25.6 78.1 27 5.4 41.7
13:35 1024 30.24 854 25.22 25.4 77.7 27 5.5 42
13:40 1024 30.24 853 25.19 25.4 77.6 26 4.9 40.9
13:45 1024 30.24 853 25.19 25.9 78.7 27 5.5 42
13:50 1024 30.24 853 25.19 26.4 79.5 25 5.1 41.2
13:55 1024 30.24 853 25.19 26.1 78.9 28 6.2 43.2
14:00 1024 30.24 853 25.19 26.5 79.7 25 5 40.9
14:05 1024 30.24 853 25.19 27.3 81.1 24 5.5 41.9
14:10 1024 30.24 853 25.19 27.4 81.4 24 5.3 41.5
14:15 1024 30.24 853 25.19 28.4 83.2 23 5.6 42.1
14:20 1024 30.24 853 25.19 28.3 83 24 6 42.8
14:25 1024 30.24 853 25.19 27.5 81.5 23 4.9 40.7
14:30 1024 30.24 853 25.19 28.5 83.3 22 5 41
14:35 1024 30.24 853 25.19 28.5 83.2 23 5.9 42.6
14:40 1023 30.21 853 25.19 28.2 82.7 23 5.4 41.7
14:45 1023 30.21 853 25.19 29.2 84.6 22 5.4 41.7
14:50 1023 30.21 853 25.19 27.8 82 24 5.6 42.1
14:55 1023 30.21 852 25.16 27.8 82 23 4.9 40.7
15:00 1023 30.21 852 25.16 27.6 81.7 23 5 40.9
15:05 1023 30.21 852 25.16 28.4 83.2 22 5.1 41.1
15:10 1023 30.21 852 25.16 27.7 81.9 24 5.8 42.4
15:15 1023 30.21 852 25.16 28 82.4 22 4.9 40.8
15:20 1023 30.21 852 25.16 29.1 84.3 22 5.4 41.6
15:25 1023 30.21 852 25.16 29.5 85.1 23 6.2 43.2
15:30 1023 30.21 852 25.16 29.4 84.9 24 6.9 44.4
15:35 1023 30.21 852 25.16 29.6 85.3 23 6.5 43.7
15:40 1023 30.21 852 25.16 29.6 85.2 21 5.5 41.8
15:45 1023 30.21 852 25.16 29.3 84.7 22 5.7 42.3
15:50 1023 30.21 852 25.16 29 84.2 22 5.3 41.6
15:55 1023 30.21 852 25.16 29.2 84.5 21 5.2 41.4
16:00 1023 30.21 852 25.16 29.3 84.7 21 5.2 41.4
16:05 1023 30.21 852 25.16 29.1 84.4 23 6.3 43.4
16:10 1023 30.21 852 25.16 29.5 85 22 6 42.8
16:15 1023 30.21 852 25.16 29.9 85.9 23 7.1 44.8
16:20 1023 30.21 852 25.16 29.9 85.8 22 6.1 43
16:25 1023 30.21 852 25.16 29.3 84.8 24 6.8 44.3
16:30 1023 30.21 852 25.16 29 84.2 24 6.9 44.5
16:35 1023 30.21 852 25.16 28.9 84 24 6.4 43.5
16:40 1023 30.21 852 25.16 28.8 83.8 24 6.7 44
16:45 1023 30.21 852 25.16 28.4 83.2 25 6.7 44
16:50 1023 30.21 852 25.16 28.1 82.6 27 7.4 45.3
16:55 1023 30.21 852 25.16 27.7 81.9 27 7.1 44.8
17:00 1023 30.21 852 25.16 27.4 81.3 27 6.9 44.5
17:05 1023 30.21 852 25.16 27.2 81 26 6.5 43.6
17:10 1023 30.21 852 25.16 27.5 81.4 26 6.7 44
17:15 1023 30.21 852 25.16 27.8 82.1 25 6.4 43.6
17:20 1023 30.21 852 25.16 28 82.4 25 6.5 43.6
17:25 1023 30.21 852 25.16 28 82.3 24 5.9 42.6
17:30 1023 30.21 852 25.16 27.6 81.6 26 6.5 43.7
17:35 1023 30.21 852 25.16 27.5 81.6 26 6.6 43.9
17:40 1023 30.21 852 25.16 27.3 81.2 28 7.4 45.4
17:45 1023 30.21 852 25.16 27.1 80.9 28 7.4 45.3
17:50 1023 30.21 852 25.16 27 80.6 29 7.6 45.7
17:55 1023 30.21 852 25.16 26.6 79.8 30 7.9 46.2
18:00 1023 30.21 852 25.16 25.9 78.5 31 7.8 46.1
18:05 1023 30.21 852 25.16 25.8 78.5 33 8.5 47.3
18:10 1023 30.21 852 25.16 25.9 78.6 30 7.5 45.4
18:15 1023 30.21 852 25.16 25.9 78.6 29 7 44.6
18:20 1023 30.21 852 25.16 25.8 78.5 29 6.8 44.2
18:25 1023 30.21 852 25.16 25.9 78.6 30 7.3 45.1
18:30 1023 30.21 852 25.16 25.9 78.5 30 7.4 45.2
18:35 1023 30.21 852 25.16 26 78.8 31 8 46.3
18:40 1023 30.21 852 25.16 25.9 78.6 31 7.9 46.1
18:45 1023 30.21 852 25.16 25.9 78.6 32 8.1 46.6
18:50 1023 30.21 852 25.16 25.6 78 33 8.5 47.4
18:55 1023 30.21 852 25.16 25.3 77.5 38 10.2 50.4
19:00 1023 30.21 852 25.16 24.9 76.8 41 10.9 51.7
19:05 1022 30.18 852 25.16 24.8 76.6 39 10.1 50.1
19:10 1022 30.18 852 25.16 24.5 76.2 41 10.5 50.9
19:15 1022 30.18 852 25.16 24.5 76.1 37 8.9 48.1
19:20 1022 30.18 852 25.16 24.7 76.5 36 9 48.3
19:25 1022 30.18 852 25.16 24.9 76.8 34 8.1 46.6
19:30 1023 30.21 852 25.16 24.8 76.6 37 9.2 48.6
19:35 1022 30.18 852 25.16 24.4 75.8 36 8.3 47
19:40 1022 30.18 852 25.16 24.5 76.1 35 8.2 46.8
19:45 1022 30.18 852 25.16 24.7 76.4 34 8.1 46.7
19:50 1022 30.18 852 25.16 24.8 76.6 36 8.9 48.1
19:55 1022 30.18 851 25.13 24.6 76.2 35 8.2 46.7
20:00 1022 30.18 851 25.13 24.4 75.9 35 8.2 46.8
20:05 1022 30.18 851 25.13 24.4 75.9 35 8.1 46.6
20:10 1022 30.18 852 25.16 24.4 76 35 8.2 46.8
20:15 1022 30.18 851 25.13 24.4 75.8 40 10.2 50.4
20:20 1022 30.18 852 25.16 23.9 75 39 9.2 48.6
20:25 1022 30.18 852 25.16 23.5 74.4 39 8.9 48
20:30 1022 30.18 852 25.16 23.5 74.3 38 8.6 47.5
20:35 1023 30.21 852 25.16 23.5 74.3 41 9.6 49.3
20:40 1023 30.21 852 25.16 23.6 74.5 36 8.1 46.5
20:45 1023 30.21 852 25.16 23.6 74.6 36 8.1 46.5
20:50 1023 30.21 852 25.16 23.6 74.5 39 8.9 48
20:55 1023 30.21 852 25.16 23.6 74.5 39 9 48.3
21:00 1023 30.21 852 25.16 23.6 74.5 38 8.7 47.6
21:05 1023 30.21 852 25.16 23.5 74.2 34 6.9 44.4
21:10 1023 30.21 852 25.16 23.4 74.2 38 8.4 47.1
21:15 1023 30.21 852 25.16 23.1 73.5 39 8.5 47.2
21:20 1023 30.21 852 25.16 22.5 72.5 38 7.6 45.8
21:25 1023 30.21 852 25.16 22.2 72 38 7.6 45.6
21:30 1023 30.21 853 25.19 22 71.5 37 6.8 44.3
21:35 1024 30.24 853 25.19 22 71.5 37 6.9 44.4
21:40 1024 30.24 853 25.19 21.9 71.3 39 7.6 45.7
21:45 1024 30.24 853 25.19 21.6 70.9 40 7.6 45.7
21:50 1024 30.24 853 25.19 21.5 70.6 43 8.7 47.6
21:55 1024 30.24 853 25.19 21 69.8 46 9.1 48.4
22:00 1024 30.24 854 25.22 20.6 69.1 46 8.6 47.5
22:05 1024 30.24 854 25.22 20.5 68.9 46 8.7 47.6
22:10 1025 30.27 854 25.22 20.6 69.1 44 8 46.3
22:15 1025 30.27 854 25.22 20.7 69.2 43 7.6 45.8
22:20 1025 30.27 854 25.22 20.6 69.1 42 7.6 45.6
22:25 1025 30.27 854 25.22 21 69.8 40 6.9 44.4
22:30 1024 30.24 854 25.22 21.7 71.1 36 6.2 43.2
22:35 1025 30.27 854 25.22 22.2 71.9 37 6.8 44.3
22:40 1025 30.27 854 25.22 21.9 71.5 36 6.2 43.2
22:45 1024 30.24 854 25.22 21.8 71.3 34 5.6 42
22:50 1024 30.24 853 25.19 21.9 71.4 38 7.3 45.1
22:55 1024 30.24 853 25.19 21.2 70.1 39 6.8 44.3
23:00 1024 30.24 853 25.19 21.3 70.3 42 8.1 46.6
23:05 1024 30.24 853 25.19 21.2 70.1 40 7.2 45
23:10 1024 30.24 853 25.19 21.1 70 40 7 44.6
23:15 1024 30.24 853 25.19 21.1 69.9 41 7.4 45.2
23:20 1024 30.24 853 25.19 20.9 69.5 43 8.1 46.5
23:25 1024 30.24 853 25.19 20.5 69 44 7.9 46.2
23:30 1023 30.21 853 25.19 20 68.1 48 8.9 47.9
23:35 1023 30.21 852 25.16 19.6 67.4 46 7.8 46.1
23:40 1023 30.21 852 25.16 19.9 67.8 43 7.2 45
23:45 1023 30.21 852 25.16 20.2 68.3 43 7.3 45.1
23:50 1023 30.21 852 25.16 20.2 68.3 42 7 44.6
23:55 1023 30.21 852 25.16 20.2 68.4 40 6.5 43.7
24:00 1023 30.21 852 25.16 20.3 68.6 41 6.7 44